Map

Track Data

SID SEASON NUMBER BASIN SUBBASIN NAME ISO_TIME NATURE LAT LON WMO_WIND WMO_PRES WMO_AGENCY TRACK_TYPE DIST2LAND LANDFALL IFLAG USA_AGENCY USA_ATCF_ID USA_LAT USA_LON USA_RECORD USA_STATUS USA_WIND USA_PRES USA_SSHS USA_R34_NE USA_R34_SE USA_R34_SW USA_R34_NW USA_R50_NE USA_R50_SE USA_R50_SW USA_R50_NW USA_R64_NE USA_R64_SE USA_R64_SW USA_R64_NW USA_POCI USA_ROCI USA_RMW USA_EYE TOKYO_LAT TOKYO_LON TOKYO_GRADE TOKYO_WIND TOKYO_PRES TOKYO_R50_DIR TOKYO_R50_LONG TOKYO_R50_SHORT TOKYO_R30_DIR TOKYO_R30_LONG TOKYO_R30_SHORT TOKYO_LAND CMA_LAT CMA_LON CMA_CAT CMA_WIND CMA_PRES HKO_LAT HKO_LON HKO_CAT HKO_WIND HKO_PRES NEWDELHI_LAT NEWDELHI_LON NEWDELHI_GRADE NEWDELHI_WIND NEWDELHI_PRES NEWDELHI_CI NEWDELHI_DP NEWDELHI_POCI REUNION_LAT REUNION_LON REUNION_TYPE REUNION_WIND REUNION_PRES REUNION_TNUM REUNION_CI REUNION_RMW REUNION_R34_NE REUNION_R34_SE REUNION_R34_SW REUNION_R34_NW REUNION_R50_NE REUNION_R50_SE REUNION_R50_SW REUNION_R50_NW REUNION_R64_NE REUNION_R64_SE REUNION_R64_SW REUNION_R64_NW BOM_LAT BOM_LON BOM_TYPE BOM_WIND BOM_PRES BOM_TNUM BOM_CI BOM_RMW BOM_R34_NE BOM_R34_SE BOM_R34_SW BOM_R34_NW BOM_R50_NE BOM_R50_SE BOM_R50_SW BOM_R50_NW BOM_R64_NE BOM_R64_SE BOM_R64_SW BOM_R64_NW BOM_ROCI BOM_POCI BOM_EYE BOM_POS_METHOD BOM_PRES_METHOD NADI_LAT NADI_LON NADI_CAT NADI_WIND NADI_PRES WELLINGTON_LAT WELLINGTON_LON WELLINGTON_WIND WELLINGTON_PRES DS824_LAT DS824_LON DS824_STAGE DS824_WIND DS824_PRES TD9636_LAT TD9636_LON TD9636_STAGE TD9636_WIND TD9636_PRES TD9635_LAT TD9635_LON TD9635_WIND TD9635_PRES TD9635_ROCI NEUMANN_LAT NEUMANN_LON NEUMANN_CLASS NEUMANN_WIND NEUMANN_PRES MLC_LAT MLC_LON MLC_CLASS MLC_WIND MLC_PRES USA_GUST BOM_GUST BOM_GUST_PER REUNION_GUST REUNION_GUST_PER USA_SEAHGT USA_SEARAD_NE USA_SEARAD_SE USA_SEARAD_SW USA_SEARAD_NW STORM_SPEED STORM_DIR
1879141N12073 1879 8 NI AS NOT_NAMED 1879-05-21 00:00:00 TS 11.6000 73.0000 main 235 225 _________O____ -1 11.6000 73.0000 TC 64 4 349
1879141N12073 1879 8 NI AS NOT_NAMED 1879-05-21 03:00:00 TS 11.8017 72.9650 main 225 220 _________PO___ -1 11.9025 72.9475 TC 64 11.6000 73.0000 4 5 352
1879141N12073 1879 8 NI AS NOT_NAMED 1879-05-21 06:00:00 TS 12.0800 72.9250 main 220 211 _________OP___ -1 12.2000 72.9000 TC 64 11.9000 72.9625 4 6 352
1879141N12073 1879 8 NI AS NOT_NAMED 1879-05-21 09:00:00 TS 12.3671 72.8843 main 211 207 _________PP___ -1 12.4925 72.8575 TC 64 12.2000 72.9200 4 6 351
1879141N12073 1879 8 NI AS NOT_NAMED 1879-05-21 12:00:00 TS 12.6500 72.8338 main 216 208 _________OP___ -1 12.8000 72.8000 TC 64 12.5000 72.8675 4 6 348
1879141N12073 1879 8 NI AS NOT_NAMED 1879-05-21 15:00:00 TS 12.9750 72.7538 main 208 208 _________PO___ -1 13.1500 72.7075 TC 64 12.8000 72.8000 4 7 345
1879141N12073 1879 8 NI AS NOT_NAMED 1879-05-21 18:00:00 TS 13.3008 72.6572 main 214 209 _________OP___ -1 13.5000 72.6000 TC 64 13.1016 72.7143 4 7 343
1879141N12073 1879 8 NI AS NOT_NAMED 1879-05-21 21:00:00 TS 13.5988 72.5574 main 209 199 _________PP___ -1 13.7850 72.4999 TC 64 13.4125 72.6149 4 7 342
1879141N12073 1879 8 NI AS NOT_NAMED 1879-05-22 00:00:00 TS 13.9211 72.4540 main 199 184 _________OP___ -1 14.1000 72.4000 TC 64 13.7422 72.5080 4 8 344
1879141N12073 1879 8 NI AS NOT_NAMED 1879-05-22 03:00:00 TS 14.3175 72.3500 main 184 177 _________PO___ -1 14.5350 72.3000 TC 64 14.1000 72.4000 4 9 347
1879141N12073 1879 8 NI AS NOT_NAMED 1879-05-22 06:00:00 TS 14.7441 72.2520 main 177 170 _________OP___ -1 15.0000 72.2000 TC 64 14.4881 72.3039 4 9 347
1879141N12073 1879 8 NI AS NOT_NAMED 1879-05-22 09:00:00 TS 15.1487 72.1536 main 170 164 _________PP___ -1 15.3925 72.0999 TC 64 14.9050 72.2073 4 9 347
1879141N12073 1879 8 NI AS NOT_NAMED 1879-05-22 12:00:00 TS 15.5722 72.0535 main 159 149 _________OP___ -1 15.8000 72.0000 TC 64 15.3444 72.1070 4 9 348
1879141N12073 1879 8 NI AS NOT_NAMED 1879-05-22 15:00:00 TS 16.0462 71.9537 main 149 149 _________PO___ -1 16.2925 71.9074 TC 64 15.8000 72.0000 4 10 348
1879141N12073 1879 8 NI AS NOT_NAMED 1879-05-22 18:00:00 TS 16.5547 71.8352 main 159 159 _________OP___ -1 16.8000 71.8000 TC 64 16.3094 71.8703 4 11 346
1879141N12073 1879 8 NI AS NOT_NAMED 1879-05-22 21:00:00 TS 17.0638 71.6891 main 158 155 _________PP___ -1 17.3025 71.6426 TC 64 16.8250 71.7355 4 10 344
1879141N12073 1879 8 NI AS NOT_NAMED 1879-05-23 00:00:00 TS 17.5016 71.5539 main 158 154 _________OP___ -1 17.7000 71.5000 TC 64 17.3032 71.6078 4 8 344
1879141N12073 1879 8 NI AS NOT_NAMED 1879-05-23 03:00:00 TS 17.7937 71.4674 main 154 154 _________PO___ -1 17.8875 71.4349 TC 64 17.7000 71.5000 4 5 345
1879141N12073 1879 8 NI AS NOT_NAMED 1879-05-23 06:00:00 TS 17.9785 71.4140 main 160 158 _________OP___ -1 18.0000 71.4000 TC 64 17.9571 71.4280 4 4 345
1879141N12073 1879 8 NI AS NOT_NAMED 1879-05-23 09:00:00 TS 18.1624 71.3635 main 158 158 _________PP___ -1 18.1925 71.3500 TC 64 18.1324 71.3770 4 4 347
1879141N12073 1879 8 NI AS NOT_NAMED 1879-05-23 12:00:00 TS 18.3332 71.3188 main 168 164 _________OP___ -1 18.4000 71.3000 TC 64 18.2665 71.3375 4 4 345
1879141N12073 1879 8 NI AS NOT_NAMED 1879-05-23 15:00:00 TS 18.5000 71.2750 main 164 161 _________PO___ -1 18.6000 71.2500 TC 56 18.4000 71.3000 4 3 346
1879141N12073 1879 8 NI AS NOT_NAMED 1879-05-23 18:00:00 TS 18.6657 71.2324 main 169 168 _________OP___ -1 18.8000 71.2000 TC 49 18.5651 71.2568 4 4 346
1879141N12073 1879 8 NI AS NOT_NAMED 1879-05-23 21:00:00 TS 18.8560 71.1847 main 168 167 _________PP___ -1 19.0000 71.1500 TC 41 18.7601 71.2078 4 4 347
1879141N12073 1879 8 NI AS NOT_NAMED 1879-05-24 00:00:00 TS 19.0500 71.1366 main 173 170 _________OP___ -1 19.2000 71.1000 TC 34 18.9751 71.1549 4 4 346
1879141N12073 1879 8 NI AS NOT_NAMED 1879-05-24 03:00:00 NR 19.2000 71.1000 main 170 __________O___ -1 TC 19.2000 71.1000 2 3 348

About IBTrACS Database

This database is a web-friendly format of International Best Track Archive for Climate Stewardship (IBTrACS), a global best track data archive curated by NOAA dating back to 1842.

Updated: 2021-11-26